CEST,Max TemperatureF,Mean TemperatureF,Min TemperatureF,Max Dew PointF,MeanDew PointF,Min DewpointF,Max Humidity, Mean Humidity, Min Humidity, Max Sea Level PressureIn, Mean Sea Level PressureIn, Min Sea Level PressureIn, Max VisibilityMiles, Mean VisibilityMiles, Min VisibilityMiles, Max Wind SpeedMPH, Mean Wind SpeedMPH, Max Gust SpeedMPH,PrecipitationIn, CloudCover, Events, WindDirDegrees
2013-7-1,82,73,64,59,55,46,77,52,30,30.09,30.08,30.06,6,6,6,10,4,,0.00,2,,342
2013-7-2,82,73,64,64,58,48,78,56,38,30.09,30.06,30.04,6,6,6,10,4,,0.00,1,,164
2013-7-3,86,76,66,64,57,50,78,54,31,30.06,30.02,29.98,,,,13,4,,0.00,,,271
2013-7-4,78,74,69,66,61,55,83,68,47,30.04,30.00,29.98,6,6,6,9,3,,0.00,5,Rain,102
2013-7-5,91,78,64,63,56,48,83,49,24,30.06,30.03,30.01,6,6,5,15,7,25,0.00,1,,21
2013-7-6,91,81,71,68,58,50,78,46,28,30.06,30.05,30.01,6,6,6,13,6,,0.00,4,Rain-Thunderstorm,23
2013-7-7,89,79,69,64,61,57,73,55,35,30.06,30.05,30.01,6,6,6,10,6,,0.00,5,Rain-Thunderstorm,16
2013-7-8,87,79,71,66,62,59,83,63,38,30.09,30.07,30.04,6,6,5,14,5,,0.00,4,Rain-Thunderstorm,351
2013-7-9,86,78,69,64,61,57,78,63,40,30.06,30.03,29.98,6,6,6,16,5,,0.00,3,Rain-Thunderstorm,354
2013-7-10,84,76,68,70,64,59,83,66,45,29.98,29.92,29.89,6,6,6,13,5,,0.00,3,,277
2013-7-11,82,76,69,70,67,64,88,70,56,29.95,29.90,29.89,6,5,2,12,4,,0.00,4,,188
2013-7-12,86,78,69,70,67,63,88,68,41,30.04,29.99,29.95,15,5,3,20,4,,0.00,3,,282
2013-7-13,87,78,70,72,67,57,83,68,37,30.04,30.03,30.00,19,6,4,18,5,,0.00,2,,255
2013-7-14,86,80,71,70,67,63,83,68,43,30.04,30.01,29.98,19,7,3,22,5,,0.04,2,Rain,252
2013-7-15,89,79,69,66,61,54,78,56,24,30.04,30.02,29.98,19,10,6,25,6,,0.00,1,,338
2013-7-16,91,80,70,63,55,50,69,42,17,30.09,30.06,30.04,9,6,6,20,6,20,0.00,2,,2
2013-7-17,89,80,72,66,56,48,65,42,21,30.09,30.06,30.01,9,8,6,22,5,17,0.00,1,,37
2013-7-18,86,78,71,68,59,54,65,50,33,30.06,30.05,30.04,6,6,6,12,5,,0.00,1,,163
2013-7-19,84,78,71,72,64,61,70,61,51,30.06,30.03,30.01,6,6,6,13,4,,0.00,2,,73
2013-7-20,87,78,68,70,63,59,78,61,43,30.01,29.98,29.95,6,6,6,12,5,,0.00,2,,323
2013-7-21,89,80,71,70,64,57,83,64,43,30.01,29.98,29.95,6,6,6,17,4,31,0.00,2,Rain-Thunderstorm,18
2013-7-22,91,80,69,70,60,54,78,52,28,30.01,29.96,29.92,6,6,6,15,6,,0.00,1,,327
2013-7-23,87,80,73,72,66,61,83,63,43,29.98,29.94,29.92,6,6,6,12,4,,0.00,1,,246
2013-7-24,87,79,71,73,70,64,88,72,58,30.04,30.01,29.98,6,6,3,12,4,,0.00,2,,207
2013-7-25,89,82,75,73,69,59,83,68,36,30.06,30.03,30.01,6,5,4,10,5,,0.00,2,,240
2013-7-26,87,80,73,75,70,66,83,68,55,30.04,30.01,29.98,6,6,5,12,4,,0.00,1,,272
2013-7-27,91,83,75,75,71,68,83,66,52,29.98,29.96,29.92,5,5,5,10,4,,0.00,,,40
2013-7-28,91,83,75,77,73,68,84,69,59,30.06,30.02,29.98,,,,9,3,,0.00,,,173
2013-7-29,95,85,75,75,70,63,84,64,36,30.09,30.04,30.01,6,6,6,12,3,,0.00,2,,189
2013-7-30,89,83,77,75,69,61,84,64,38,30.01,29.97,29.92,6,6,5,13,4,,0.00,3,,263
2013-7-31,91,83,75,68,55,46,69,38,26,29.95,29.93,29.89,6,6,6,17,8,,0.00,1,,50